sensor_id;sensor_type;location;lat;lon;timestamp;P1;durP1;ratioP1;P2;durP2;ratioP2
10517;SDS011;5307;42.548;22.968;2023-06-22T00:02:01;15.38;;;10.65;;
10517;SDS011;5307;42.548;22.968;2023-06-22T00:04:28;15.13;;;10.32;;
10517;SDS011;5307;42.548;22.968;2023-06-22T00:06:55;14.75;;;10.10;;
10517;SDS011;5307;42.548;22.968;2023-06-22T00:09:22;16.13;;;10.10;;
10517;SDS011;5307;42.548;22.968;2023-06-22T00:11:48;16.55;;;10.85;;
10517;SDS011;5307;42.548;22.968;2023-06-22T00:14:15;14.57;;;10.18;;
10517;SDS011;5307;42.548;22.968;2023-06-22T00:16:43;22.55;;;11.30;;
10517;SDS011;5307;42.548;22.968;2023-06-22T00:19:13;18.80;;;11.07;;
10517;SDS011;5307;42.548;22.968;2023-06-22T00:21:40;17.65;;;11.18;;
10517;SDS011;5307;42.548;22.968;2023-06-22T00:24:08;14.27;;;10.93;;
10517;SDS011;5307;42.548;22.968;2023-06-22T00:26:34;12.98;;;10.95;;
10517;SDS011;5307;42.548;22.968;2023-06-22T00:29:01;18.02;;;11.25;;
10517;SDS011;5307;42.548;22.968;2023-06-22T00:31:28;16.40;;;11.32;;
10517;SDS011;5307;42.548;22.968;2023-06-22T00:33:56;16.88;;;11.63;;
10517;SDS011;5307;42.548;22.968;2023-06-22T00:36:23;17.52;;;11.32;;
10517;SDS011;5307;42.548;22.968;2023-06-22T00:49:01;18.05;;;11.82;;
10517;SDS011;5307;42.548;22.968;2023-06-22T00:51:30;15.43;;;11.80;;
10517;SDS011;5307;42.548;22.968;2023-06-22T00:53:58;16.00;;;11.52;;
10517;SDS011;5307;42.548;22.968;2023-06-22T00:56:25;16.42;;;11.30;;
10517;SDS011;5307;42.548;22.968;2023-06-22T00:58:55;16.17;;;11.45;;
10517;SDS011;5307;42.548;22.968;2023-06-22T01:01:22;18.58;;;11.82;;
10517;SDS011;5307;42.548;22.968;2023-06-22T01:03:49;18.08;;;12.10;;
10517;SDS011;5307;42.548;22.968;2023-06-22T01:06:21;17.88;;;12.98;;
10517;SDS011;5307;42.548;22.968;2023-06-22T01:08:53;15.27;;;11.88;;
10517;SDS011;5307;42.548;22.968;2023-06-22T01:11:28;15.95;;;11.90;;
10517;SDS011;5307;42.548;22.968;2023-06-22T01:14:00;15.02;;;11.80;;
10517;SDS011;5307;42.548;22.968;2023-06-22T01:16:33;18.70;;;12.18;;
10517;SDS011;5307;42.548;22.968;2023-06-22T01:19:05;13.20;;;11.80;;
10517;SDS011;5307;42.548;22.968;2023-06-22T01:21:42;21.58;;;12.10;;
10517;SDS011;5307;42.548;22.968;2023-06-22T01:24:13;14.07;;;12.25;;
10517;SDS011;5307;42.548;22.968;2023-06-22T01:26:47;21.70;;;11.38;;
10517;SDS011;5307;42.548;22.968;2023-06-22T01:29:25;16.65;;;12.05;;
10517;SDS011;5307;42.548;22.968;2023-06-22T01:31:53;15.80;;;11.77;;
10517;SDS011;5307;42.548;22.968;2023-06-22T01:34:22;13.13;;;11.32;;
10517;SDS011;5307;42.548;22.968;2023-06-22T01:36:50;17.42;;;13.00;;
10517;SDS011;5307;42.548;22.968;2023-06-22T01:39:19;18.27;;;11.52;;
10517;SDS011;5307;42.548;22.968;2023-06-22T01:41:48;12.40;;;11.10;;
10517;SDS011;5307;42.548;22.968;2023-06-22T01:44:15;16.15;;;12.35;;
10517;SDS011;5307;42.548;22.968;2023-06-22T01:46:45;15.43;;;11.40;;
10517;SDS011;5307;42.548;22.968;2023-06-22T01:49:14;12.82;;;11.45;;
10517;SDS011;5307;42.548;22.968;2023-06-22T01:51:41;13.15;;;11.38;;
10517;SDS011;5307;42.548;22.968;2023-06-22T01:54:08;18.75;;;11.68;;
10517;SDS011;5307;42.548;22.968;2023-06-22T01:56:35;14.80;;;11.98;;
10517;SDS011;5307;42.548;22.968;2023-06-22T01:59:04;14.93;;;12.13;;
10517;SDS011;5307;42.548;22.968;2023-06-22T02:01:43;14.15;;;11.82;;
10517;SDS011;5307;42.548;22.968;2023-06-22T02:04:18;19.73;;;12.07;;
10517;SDS011;5307;42.548;22.968;2023-06-22T02:06:49;15.05;;;12.27;;
10517;SDS011;5307;42.548;22.968;2023-06-22T02:09:19;18.17;;;12.35;;
10517;SDS011;5307;42.548;22.968;2023-06-22T02:11:47;17.23;;;11.52;;
10517;SDS011;5307;42.548;22.968;2023-06-22T02:14:18;17.88;;;12.40;;
10517;SDS011;5307;42.548;22.968;2023-06-22T02:16:47;13.85;;;11.05;;
10517;SDS011;5307;42.548;22.968;2023-06-22T02:19:14;27.73;;;12.93;;
10517;SDS011;5307;42.548;22.968;2023-06-22T02:21:43;15.27;;;11.07;;
10517;SDS011;5307;42.548;22.968;2023-06-22T02:24:10;19.38;;;12.18;;
10517;SDS011;5307;42.548;22.968;2023-06-22T02:26:37;14.38;;;11.63;;
10517;SDS011;5307;42.548;22.968;2023-06-22T02:29:05;14.52;;;11.15;;
10517;SDS011;5307;42.548;22.968;2023-06-22T02:31:31;16.13;;;11.27;;
10517;SDS011;5307;42.548;22.968;2023-06-22T02:33:59;14.20;;;11.25;;
10517;SDS011;5307;42.548;22.968;2023-06-22T02:36:26;18.55;;;12.02;;
10517;SDS011;5307;42.548;22.968;2023-06-22T02:38:55;16.77;;;11.48;;
10517;SDS011;5307;42.548;22.968;2023-06-22T02:41:24;16.10;;;11.27;;
10517;SDS011;5307;42.548;22.968;2023-06-22T02:43:50;15.35;;;10.85;;
10517;SDS011;5307;42.548;22.968;2023-06-22T02:46:17;12.95;;;10.75;;
10517;SDS011;5307;42.548;22.968;2023-06-22T02:48:44;16.35;;;11.70;;
10517;SDS011;5307;42.548;22.968;2023-06-22T02:51:13;17.98;;;11.73;;
10517;SDS011;5307;42.548;22.968;2023-06-22T02:53:40;14.88;;;10.98;;
10517;SDS011;5307;42.548;22.968;2023-06-22T02:56:09;18.55;;;11.52;;
10517;SDS011;5307;42.548;22.968;2023-06-22T02:58:37;14.45;;;12.15;;
10517;SDS011;5307;42.548;22.968;2023-06-22T03:01:04;15.10;;;12.07;;
10517;SDS011;5307;42.548;22.968;2023-06-22T03:03:31;13.95;;;11.38;;
10517;SDS011;5307;42.548;22.968;2023-06-22T03:05:58;15.52;;;11.32;;
10517;SDS011;5307;42.548;22.968;2023-06-22T03:08:28;14.48;;;11.70;;
10517;SDS011;5307;42.548;22.968;2023-06-22T03:10:55;15.23;;;11.32;;
10517;SDS011;5307;42.548;22.968;2023-06-22T03:13:21;18.05;;;12.40;;
10517;SDS011;5307;42.548;22.968;2023-06-22T03:15:49;14.48;;;11.93;;
10517;SDS011;5307;42.548;22.968;2023-06-22T03:18:16;14.85;;;11.75;;
10517;SDS011;5307;42.548;22.968;2023-06-22T03:20:42;18.05;;;12.63;;
10517;SDS011;5307;42.548;22.968;2023-06-22T03:23:09;18.92;;;12.55;;
10517;SDS011;5307;42.548;22.968;2023-06-22T03:25:37;19.83;;;12.05;;
10517;SDS011;5307;42.548;22.968;2023-06-22T03:28:04;16.90;;;12.63;;
10517;SDS011;5307;42.548;22.968;2023-06-22T03:30:31;17.90;;;12.38;;
10517;SDS011;5307;42.548;22.968;2023-06-22T03:32:58;17.27;;;11.75;;
10517;SDS011;5307;42.548;22.968;2023-06-22T03:35:24;19.48;;;15.15;;
10517;SDS011;5307;42.548;22.968;2023-06-22T03:37:51;20.58;;;14.82;;
10517;SDS011;5307;42.548;22.968;2023-06-22T03:40:18;30.10;;;17.55;;
10517;SDS011;5307;42.548;22.968;2023-06-22T03:42:47;32.22;;;16.35;;
10517;SDS011;5307;42.548;22.968;2023-06-22T03:45:13;23.40;;;16.73;;
10517;SDS011;5307;42.548;22.968;2023-06-22T03:47:40;24.25;;;16.52;;
10517;SDS011;5307;42.548;22.968;2023-06-22T03:50:08;25.60;;;16.17;;
10517;SDS011;5307;42.548;22.968;2023-06-22T03:52:35;25.17;;;16.67;;
10517;SDS011;5307;42.548;22.968;2023-06-22T03:55:02;23.75;;;15.45;;
10517;SDS011;5307;42.548;22.968;2023-06-22T03:57:29;25.13;;;16.58;;
10517;SDS011;5307;42.548;22.968;2023-06-22T03:59:57;21.80;;;15.32;;
10517;SDS011;5307;42.548;22.968;2023-06-22T04:02:25;28.92;;;16.35;;
10517;SDS011;5307;42.548;22.968;2023-06-22T04:04:51;21.48;;;15.63;;
10517;SDS011;5307;42.548;22.968;2023-06-22T04:07:18;21.25;;;14.82;;
10517;SDS011;5307;42.548;22.968;2023-06-22T04:09:45;21.75;;;14.38;;
10517;SDS011;5307;42.548;22.968;2023-06-22T04:12:12;22.17;;;13.32;;
10517;SDS011;5307;42.548;22.968;2023-06-22T04:14:39;20.33;;;13.15;;
10517;SDS011;5307;42.548;22.968;2023-06-22T04:17:07;15.73;;;12.10;;
10517;SDS011;5307;42.548;22.968;2023-06-22T04:19:34;16.30;;;11.48;;
10517;SDS011;5307;42.548;22.968;2023-06-22T04:22:00;17.13;;;11.43;;
10517;SDS011;5307;42.548;22.968;2023-06-22T04:24:27;19.33;;;12.82;;
10517;SDS011;5307;42.548;22.968;2023-06-22T04:26:54;19.65;;;12.02;;
10517;SDS011;5307;42.548;22.968;2023-06-22T04:29:21;19.67;;;12.65;;
10517;SDS011;5307;42.548;22.968;2023-06-22T04:31:53;20.95;;;13.05;;
10517;SDS011;5307;42.548;22.968;2023-06-22T04:34:24;19.65;;;13.27;;
10517;SDS011;5307;42.548;22.968;2023-06-22T04:36:53;24.83;;;14.65;;
10517;SDS011;5307;42.548;22.968;2023-06-22T04:39:20;20.80;;;14.05;;
10517;SDS011;5307;42.548;22.968;2023-06-22T04:41:47;28.40;;;14.05;;
10517;SDS011;5307;42.548;22.968;2023-06-22T04:44:14;19.92;;;13.00;;
10517;SDS011;5307;42.548;22.968;2023-06-22T04:46:49;13.45;;;11.90;;
10517;SDS011;5307;42.548;22.968;2023-06-22T04:49:19;14.15;;;11.65;;
10517;SDS011;5307;42.548;22.968;2023-06-22T04:51:48;15.50;;;12.48;;
10517;SDS011;5307;42.548;22.968;2023-06-22T04:54:16;16.15;;;12.77;;
10517;SDS011;5307;42.548;22.968;2023-06-22T04:56:43;19.58;;;13.15;;
10517;SDS011;5307;42.548;22.968;2023-06-22T04:59:11;23.50;;;14.20;;
10517;SDS011;5307;42.548;22.968;2023-06-22T05:01:38;20.23;;;15.77;;
10517;SDS011;5307;42.548;22.968;2023-06-22T05:04:05;19.05;;;15.10;;
10517;SDS011;5307;42.548;22.968;2023-06-22T05:06:32;17.45;;;14.85;;
10517;SDS011;5307;42.548;22.968;2023-06-22T05:09:01;21.50;;;13.70;;
10517;SDS011;5307;42.548;22.968;2023-06-22T05:11:30;19.58;;;14.93;;
10517;SDS011;5307;42.548;22.968;2023-06-22T05:13:57;17.50;;;13.95;;
10517;SDS011;5307;42.548;22.968;2023-06-22T05:16:24;18.45;;;13.82;;
10517;SDS011;5307;42.548;22.968;2023-06-22T05:18:51;19.38;;;14.27;;
10517;SDS011;5307;42.548;22.968;2023-06-22T05:21:21;19.05;;;14.32;;
10517;SDS011;5307;42.548;22.968;2023-06-22T05:23:49;18.98;;;13.80;;
10517;SDS011;5307;42.548;22.968;2023-06-22T05:26:17;17.70;;;14.65;;
10517;SDS011;5307;42.548;22.968;2023-06-22T05:28:44;19.73;;;13.95;;
10517;SDS011;5307;42.548;22.968;2023-06-22T05:31:12;18.65;;;15.20;;
10517;SDS011;5307;42.548;22.968;2023-06-22T05:33:39;23.15;;;15.93;;
10517;SDS011;5307;42.548;22.968;2023-06-22T05:36:06;21.58;;;14.65;;
10517;SDS011;5307;42.548;22.968;2023-06-22T05:38:34;18.15;;;14.20;;
10517;SDS011;5307;42.548;22.968;2023-06-22T05:41:00;26.13;;;14.93;;
10517;SDS011;5307;42.548;22.968;2023-06-22T05:43:29;19.90;;;15.00;;
10517;SDS011;5307;42.548;22.968;2023-06-22T05:45:56;32.88;;;14.25;;
10517;SDS011;5307;42.548;22.968;2023-06-22T05:48:23;20.02;;;14.15;;
10517;SDS011;5307;42.548;22.968;2023-06-22T05:50:50;22.35;;;14.35;;
10517;SDS011;5307;42.548;22.968;2023-06-22T05:53:17;23.23;;;14.27;;
10517;SDS011;5307;42.548;22.968;2023-06-22T05:55:44;19.73;;;13.88;;
10517;SDS011;5307;42.548;22.968;2023-06-22T05:58:10;29.23;;;16.00;;
10517;SDS011;5307;42.548;22.968;2023-06-22T06:00:39;27.55;;;14.32;;
10517;SDS011;5307;42.548;22.968;2023-06-22T06:03:07;18.80;;;14.68;;
10517;SDS011;5307;42.548;22.968;2023-06-22T06:05:34;27.13;;;14.52;;
10517;SDS011;5307;42.548;22.968;2023-06-22T06:08:01;23.67;;;14.88;;
10517;SDS011;5307;42.548;22.968;2023-06-22T06:10:30;18.15;;;13.85;;
10517;SDS011;5307;42.548;22.968;2023-06-22T06:19:14;20.17;;;14.43;;
10517;SDS011;5307;42.548;22.968;2023-06-22T06:21:41;19.13;;;14.73;;
10517;SDS011;5307;42.548;22.968;2023-06-22T06:24:08;18.05;;;15.15;;
10517;SDS011;5307;42.548;22.968;2023-06-22T06:26:35;24.38;;;15.32;;
10517;SDS011;5307;42.548;22.968;2023-06-22T06:29:01;27.77;;;15.85;;
10517;SDS011;5307;42.548;22.968;2023-06-22T06:31:28;23.80;;;16.27;;
10517;SDS011;5307;42.548;22.968;2023-06-22T06:33:56;22.30;;;15.60;;
10517;SDS011;5307;42.548;22.968;2023-06-22T06:36:23;24.92;;;16.40;;
10517;SDS011;5307;42.548;22.968;2023-06-22T06:38:50;23.30;;;15.52;;
10517;SDS011;5307;42.548;22.968;2023-06-22T06:41:17;27.30;;;17.02;;
10517;SDS011;5307;42.548;22.968;2023-06-22T06:43:44;25.15;;;16.88;;
10517;SDS011;5307;42.548;22.968;2023-06-22T06:46:11;20.02;;;15.93;;
10517;SDS011;5307;42.548;22.968;2023-06-22T06:48:37;27.55;;;15.73;;
10517;SDS011;5307;42.548;22.968;2023-06-22T06:51:06;22.38;;;14.70;;
10517;SDS011;5307;42.548;22.968;2023-06-22T06:56:20;23.20;;;16.50;;
10517;SDS011;5307;42.548;22.968;2023-06-22T06:58:49;22.17;;;16.58;;
10517;SDS011;5307;42.548;22.968;2023-06-22T07:01:20;27.42;;;15.57;;
10517;SDS011;5307;42.548;22.968;2023-06-22T07:03:46;26.05;;;16.38;;
10517;SDS011;5307;42.548;22.968;2023-06-22T07:06:14;22.25;;;15.73;;
10517;SDS011;5307;42.548;22.968;2023-06-22T07:08:41;23.23;;;16.75;;
10517;SDS011;5307;42.548;22.968;2023-06-22T07:11:08;23.85;;;15.90;;
10517;SDS011;5307;42.548;22.968;2023-06-22T07:13:35;20.08;;;16.40;;
10517;SDS011;5307;42.548;22.968;2023-06-22T07:16:02;26.15;;;16.63;;
10517;SDS011;5307;42.548;22.968;2023-06-22T07:18:29;25.65;;;16.55;;
10517;SDS011;5307;42.548;22.968;2023-06-22T07:20:56;25.45;;;16.73;;
10517;SDS011;5307;42.548;22.968;2023-06-22T07:23:24;19.55;;;16.48;;
10517;SDS011;5307;42.548;22.968;2023-06-22T07:25:51;26.45;;;15.75;;
10517;SDS011;5307;42.548;22.968;2023-06-22T07:28:18;30.90;;;17.30;;
10517;SDS011;5307;42.548;22.968;2023-06-22T07:30:45;22.55;;;15.68;;
10517;SDS011;5307;42.548;22.968;2023-06-22T07:33:12;27.67;;;15.50;;
10517;SDS011;5307;42.548;22.968;2023-06-22T07:35:39;26.50;;;16.25;;
10517;SDS011;5307;42.548;22.968;2023-06-22T07:38:06;23.98;;;15.95;;
10517;SDS011;5307;42.548;22.968;2023-06-22T07:40:35;21.80;;;16.15;;
10517;SDS011;5307;42.548;22.968;2023-06-22T07:43:02;21.38;;;15.80;;
10517;SDS011;5307;42.548;22.968;2023-06-22T07:45:29;29.42;;;15.88;;
10517;SDS011;5307;42.548;22.968;2023-06-22T07:47:58;22.95;;;15.43;;
10517;SDS011;5307;42.548;22.968;2023-06-22T07:50:25;22.38;;;17.25;;
10517;SDS011;5307;42.548;22.968;2023-06-22T07:52:52;20.08;;;16.42;;
10517;SDS011;5307;42.548;22.968;2023-06-22T07:55:18;24.50;;;16.23;;
10517;SDS011;5307;42.548;22.968;2023-06-22T07:57:48;23.73;;;16.33;;
10517;SDS011;5307;42.548;22.968;2023-06-22T08:00:17;22.50;;;16.35;;
10517;SDS011;5307;42.548;22.968;2023-06-22T08:02:44;27.83;;;16.35;;
10517;SDS011;5307;42.548;22.968;2023-06-22T08:05:12;19.45;;;15.95;;
10517;SDS011;5307;42.548;22.968;2023-06-22T08:07:39;21.88;;;16.00;;
10517;SDS011;5307;42.548;22.968;2023-06-22T08:10:09;24.05;;;15.90;;
10517;SDS011;5307;42.548;22.968;2023-06-22T08:12:37;33.28;;;16.05;;
10517;SDS011;5307;42.548;22.968;2023-06-22T08:15:06;25.95;;;15.48;;
10517;SDS011;5307;42.548;22.968;2023-06-22T08:17:34;17.20;;;13.55;;
10517;SDS011;5307;42.548;22.968;2023-06-22T08:20:03;19.42;;;13.07;;
10517;SDS011;5307;42.548;22.968;2023-06-22T08:22:34;14.57;;;11.27;;
10517;SDS011;5307;42.548;22.968;2023-06-22T08:25:01;17.75;;;11.57;;
10517;SDS011;5307;42.548;22.968;2023-06-22T08:27:29;15.18;;;10.82;;
10517;SDS011;5307;42.548;22.968;2023-06-22T08:29:56;13.10;;;11.80;;
10517;SDS011;5307;42.548;22.968;2023-06-22T08:32:25;14.50;;;10.98;;
10517;SDS011;5307;42.548;22.968;2023-06-22T08:34:52;13.82;;;11.32;;
10517;SDS011;5307;42.548;22.968;2023-06-22T08:37:20;13.73;;;11.55;;
10517;SDS011;5307;42.548;22.968;2023-06-22T08:39:55;15.55;;;11.27;;
10517;SDS011;5307;42.548;22.968;2023-06-22T08:42:22;12.35;;;10.23;;
10517;SDS011;5307;42.548;22.968;2023-06-22T08:44:51;12.02;;;9.75;;
10517;SDS011;5307;42.548;22.968;2023-06-22T08:47:18;16.65;;;9.95;;
10517;SDS011;5307;42.548;22.968;2023-06-22T08:49:47;13.32;;;9.80;;
10517;SDS011;5307;42.548;22.968;2023-06-22T08:52:14;14.77;;;10.43;;
10517;SDS011;5307;42.548;22.968;2023-06-22T08:54:41;14.85;;;9.70;;
10517;SDS011;5307;42.548;22.968;2023-06-22T08:57:08;10.68;;;9.57;;
10517;SDS011;5307;42.548;22.968;2023-06-22T08:59:35;11.43;;;9.43;;
10517;SDS011;5307;42.548;22.968;2023-06-22T09:02:02;13.40;;;9.45;;
10517;SDS011;5307;42.548;22.968;2023-06-22T09:04:28;11.63;;;10.38;;
10517;SDS011;5307;42.548;22.968;2023-06-22T09:07:00;12.38;;;8.60;;
10517;SDS011;5307;42.548;22.968;2023-06-22T09:09:27;14.80;;;9.57;;
10517;SDS011;5307;42.548;22.968;2023-06-22T09:11:54;11.90;;;9.63;;
10517;SDS011;5307;42.548;22.968;2023-06-22T09:14:21;9.75;;;8.77;;
10517;SDS011;5307;42.548;22.968;2023-06-22T09:16:48;12.40;;;8.80;;
10517;SDS011;5307;42.548;22.968;2023-06-22T09:19:14;10.77;;;9.05;;
10517;SDS011;5307;42.548;22.968;2023-06-22T09:21:41;9.90;;;8.88;;
10517;SDS011;5307;42.548;22.968;2023-06-22T09:24:09;9.65;;;8.65;;
10517;SDS011;5307;42.548;22.968;2023-06-22T09:29:59;9.60;;;8.68;;
10517;SDS011;5307;42.548;22.968;2023-06-22T09:32:25;14.75;;;9.75;;
10517;SDS011;5307;42.548;22.968;2023-06-22T09:34:52;10.40;;;9.27;;
10517;SDS011;5307;42.548;22.968;2023-06-22T09:37:19;13.27;;;8.98;;
10517;SDS011;5307;42.548;22.968;2023-06-22T09:39:47;9.45;;;8.55;;
10517;SDS011;5307;42.548;22.968;2023-06-22T09:42:14;10.63;;;9.15;;
10517;SDS011;5307;42.548;22.968;2023-06-22T09:44:41;9.07;;;8.18;;
10517;SDS011;5307;42.548;22.968;2023-06-22T09:47:08;12.02;;;8.77;;
10517;SDS011;5307;42.548;22.968;2023-06-22T09:49:35;17.27;;;9.38;;
10517;SDS011;5307;42.548;22.968;2023-06-22T09:52:01;10.73;;;8.95;;
10517;SDS011;5307;42.548;22.968;2023-06-22T09:54:28;10.63;;;8.95;;
10517;SDS011;5307;42.548;22.968;2023-06-22T09:56:56;10.15;;;9.13;;
10517;SDS011;5307;42.548;22.968;2023-06-22T09:59:23;10.40;;;9.38;;
10517;SDS011;5307;42.548;22.968;2023-06-22T10:01:50;10.43;;;9.20;;
10517;SDS011;5307;42.548;22.968;2023-06-22T10:04:17;10.25;;;9.30;;
10517;SDS011;5307;42.548;22.968;2023-06-22T10:06:44;12.23;;;10.15;;
10517;SDS011;5307;42.548;22.968;2023-06-22T10:09:11;11.70;;;10.00;;
10517;SDS011;5307;42.548;22.968;2023-06-22T10:11:37;10.32;;;9.38;;
10517;SDS011;5307;42.548;22.968;2023-06-22T10:14:06;10.00;;;9.10;;
10517;SDS011;5307;42.548;22.968;2023-06-22T10:16:32;11.10;;;10.00;;
10517;SDS011;5307;42.548;22.968;2023-06-22T10:19:00;12.27;;;10.20;;
10517;SDS011;5307;42.548;22.968;2023-06-22T10:21:27;13.40;;;10.40;;
10517;SDS011;5307;42.548;22.968;2023-06-22T10:23:54;12.45;;;10.30;;
10517;SDS011;5307;42.548;22.968;2023-06-22T10:26:21;13.60;;;10.70;;
10517;SDS011;5307;42.548;22.968;2023-06-22T10:28:48;10.50;;;9.40;;
10517;SDS011;5307;42.548;22.968;2023-06-22T10:31:17;13.48;;;8.82;;
10517;SDS011;5307;42.548;22.968;2023-06-22T10:33:44;14.27;;;10.02;;
10517;SDS011;5307;42.548;22.968;2023-06-22T10:36:11;12.38;;;9.80;;
10517;SDS011;5307;42.548;22.968;2023-06-22T10:38:38;15.23;;;10.05;;
10517;SDS011;5307;42.548;22.968;2023-06-22T10:41:05;10.25;;;9.23;;
10517;SDS011;5307;42.548;22.968;2023-06-22T10:43:32;11.48;;;8.77;;
10517;SDS011;5307;42.548;22.968;2023-06-22T10:45:58;11.20;;;10.10;;
10517;SDS011;5307;42.548;22.968;2023-06-22T10:48:27;11.52;;;9.93;;
10517;SDS011;5307;42.548;22.968;2023-06-22T10:50:54;13.05;;;9.93;;
10517;SDS011;5307;42.548;22.968;2023-06-22T10:53:21;11.73;;;9.93;;
10517;SDS011;5307;42.548;22.968;2023-06-22T10:55:48;12.00;;;10.30;;
10517;SDS011;5307;42.548;22.968;2023-06-22T10:58:14;13.18;;;10.30;;
10517;SDS011;5307;42.548;22.968;2023-06-22T11:00:41;10.77;;;9.70;;
10517;SDS011;5307;42.548;22.968;2023-06-22T11:03:08;11.13;;;10.02;;
10517;SDS011;5307;42.548;22.968;2023-06-22T11:05:36;11.38;;;9.48;;
10517;SDS011;5307;42.548;22.968;2023-06-22T11:08:03;11.40;;;9.20;;
10517;SDS011;5307;42.548;22.968;2023-06-22T11:10:30;11.18;;;8.80;;
10517;SDS011;5307;42.548;22.968;2023-06-22T11:12:57;10.63;;;9.52;;
10517;SDS011;5307;42.548;22.968;2023-06-22T11:15:24;11.25;;;9.15;;
10517;SDS011;5307;42.548;22.968;2023-06-22T11:17:51;9.88;;;8.90;;
10517;SDS011;5307;42.548;22.968;2023-06-22T11:20:18;10.60;;;8.10;;
10517;SDS011;5307;42.548;22.968;2023-06-22T11:22:46;10.43;;;7.63;;
10517;SDS011;5307;42.548;22.968;2023-06-22T11:25:13;9.20;;;7.55;;
10517;SDS011;5307;42.548;22.968;2023-06-22T11:27:39;8.45;;;7.50;;
10517;SDS011;5307;42.548;22.968;2023-06-22T11:30:07;8.80;;;7.90;;
10517;SDS011;5307;42.548;22.968;2023-06-22T11:32:35;9.60;;;8.57;;
10517;SDS011;5307;42.548;22.968;2023-06-22T11:35:02;9.40;;;8.32;;
10517;SDS011;5307;42.548;22.968;2023-06-22T11:37:29;9.73;;;8.73;;
10517;SDS011;5307;42.548;22.968;2023-06-22T11:39:57;9.05;;;7.95;;
10517;SDS011;5307;42.548;22.968;2023-06-22T11:42:24;9.73;;;8.40;;
10517;SDS011;5307;42.548;22.968;2023-06-22T11:44:51;12.82;;;8.20;;
10517;SDS011;5307;42.548;22.968;2023-06-22T11:47:18;9.25;;;8.40;;
10517;SDS011;5307;42.548;22.968;2023-06-22T11:49:44;11.20;;;8.68;;
10517;SDS011;5307;42.548;22.968;2023-06-22T11:52:12;11.55;;;8.85;;
10517;SDS011;5307;42.548;22.968;2023-06-22T11:54:39;8.98;;;8.13;;
10517;SDS011;5307;42.548;22.968;2023-06-22T11:57:07;8.95;;;8.05;;
10517;SDS011;5307;42.548;22.968;2023-06-22T11:59:34;13.60;;;8.55;;
10517;SDS011;5307;42.548;22.968;2023-06-22T12:02:01;12.50;;;7.70;;
10517;SDS011;5307;42.548;22.968;2023-06-22T12:04:29;9.27;;;7.82;;
10517;SDS011;5307;42.548;22.968;2023-06-22T12:06:56;11.43;;;7.65;;
10517;SDS011;5307;42.548;22.968;2023-06-22T12:09:23;8.32;;;6.70;;
10517;SDS011;5307;42.548;22.968;2023-06-22T12:11:50;9.35;;;7.47;;
10517;SDS011;5307;42.548;22.968;2023-06-22T12:14:18;8.45;;;7.22;;
10517;SDS011;5307;42.548;22.968;2023-06-22T12:16:45;9.15;;;8.25;;
10517;SDS011;5307;42.548;22.968;2023-06-22T12:19:12;10.70;;;7.75;;
10517;SDS011;5307;42.548;22.968;2023-06-22T12:21:39;10.75;;;7.78;;
10517;SDS011;5307;42.548;22.968;2023-06-22T12:26:52;7.95;;;7.22;;
10517;SDS011;5307;42.548;22.968;2023-06-22T12:29:21;11.18;;;7.20;;
10517;SDS011;5307;42.548;22.968;2023-06-22T12:31:48;16.65;;;8.50;;
10517;SDS011;5307;42.548;22.968;2023-06-22T12:34:14;10.38;;;7.53;;
10517;SDS011;5307;42.548;22.968;2023-06-22T12:36:41;8.50;;;7.50;;
10517;SDS011;5307;42.548;22.968;2023-06-22T12:39:08;9.00;;;6.80;;
10517;SDS011;5307;42.548;22.968;2023-06-22T12:41:35;8.50;;;7.70;;
10517;SDS011;5307;42.548;22.968;2023-06-22T12:44:02;11.25;;;7.20;;
10517;SDS011;5307;42.548;22.968;2023-06-22T12:46:30;9.77;;;7.32;;
10517;SDS011;5307;42.548;22.968;2023-06-22T12:49:02;9.07;;;8.18;;
10517;SDS011;5307;42.548;22.968;2023-06-22T12:51:30;8.75;;;7.40;;
10517;SDS011;5307;42.548;22.968;2023-06-22T12:53:59;9.52;;;7.05;;
10517;SDS011;5307;42.548;22.968;2023-06-22T12:56:26;8.50;;;7.60;;
10517;SDS011;5307;42.548;22.968;2023-06-22T12:58:52;9.93;;;7.57;;
10517;SDS011;5307;42.548;22.968;2023-06-22T13:01:19;9.90;;;7.90;;
10517;SDS011;5307;42.548;22.968;2023-06-22T13:03:48;17.25;;;9.00;;
10517;SDS011;5307;42.548;22.968;2023-06-22T13:06:15;20.90;;;8.93;;
10517;SDS011;5307;42.548;22.968;2023-06-22T13:08:42;13.77;;;8.77;;
10517;SDS011;5307;42.548;22.968;2023-06-22T13:11:09;10.02;;;7.80;;
10517;SDS011;5307;42.548;22.968;2023-06-22T13:13:36;11.50;;;8.70;;
10517;SDS011;5307;42.548;22.968;2023-06-22T13:16:03;12.52;;;8.23;;
10517;SDS011;5307;42.548;22.968;2023-06-22T13:18:29;14.63;;;7.32;;
10517;SDS011;5307;42.548;22.968;2023-06-22T13:20:58;8.85;;;5.93;;
10517;SDS011;5307;42.548;22.968;2023-06-22T13:23:25;10.60;;;6.90;;
10517;SDS011;5307;42.548;22.968;2023-06-22T13:25:52;15.73;;;7.10;;
10517;SDS011;5307;42.548;22.968;2023-06-22T13:28:19;13.23;;;6.80;;
10517;SDS011;5307;42.548;22.968;2023-06-22T13:30:46;8.82;;;5.55;;
10517;SDS011;5307;42.548;22.968;2023-06-22T13:33:13;7.18;;;6.30;;
10517;SDS011;5307;42.548;22.968;2023-06-22T13:35:40;8.02;;;6.85;;
10517;SDS011;5307;42.548;22.968;2023-06-22T13:38:09;11.05;;;6.40;;
10517;SDS011;5307;42.548;22.968;2023-06-22T13:40:36;10.15;;;6.68;;
10517;SDS011;5307;42.548;22.968;2023-06-22T13:43:04;10.15;;;7.28;;
10517;SDS011;5307;42.548;22.968;2023-06-22T13:45:31;7.75;;;6.55;;
10517;SDS011;5307;42.548;22.968;2023-06-22T13:47:58;10.20;;;7.35;;
10517;SDS011;5307;42.548;22.968;2023-06-22T13:50:25;6.88;;;5.55;;
10517;SDS011;5307;42.548;22.968;2023-06-22T13:52:51;9.93;;;6.75;;
10517;SDS011;5307;42.548;22.968;2023-06-22T13:55:19;11.32;;;6.15;;
10517;SDS011;5307;42.548;22.968;2023-06-22T13:57:46;11.10;;;7.00;;
10517;SDS011;5307;42.548;22.968;2023-06-22T14:00:13;9.52;;;7.30;;
10517;SDS011;5307;42.548;22.968;2023-06-22T14:02:41;9.57;;;7.75;;
10517;SDS011;5307;42.548;22.968;2023-06-22T14:05:08;13.65;;;7.63;;
10517;SDS011;5307;42.548;22.968;2023-06-22T14:07:36;9.50;;;6.75;;
10517;SDS011;5307;42.548;22.968;2023-06-22T14:10:03;15.43;;;7.82;;
10517;SDS011;5307;42.548;22.968;2023-06-22T14:12:32;10.98;;;8.32;;
10517;SDS011;5307;42.548;22.968;2023-06-22T14:14:59;15.57;;;8.70;;
10517;SDS011;5307;42.548;22.968;2023-06-22T14:17:26;12.35;;;8.88;;
10517;SDS011;5307;42.548;22.968;2023-06-22T14:19:52;15.93;;;9.43;;
10517;SDS011;5307;42.548;22.968;2023-06-22T14:22:20;10.57;;;8.68;;
10517;SDS011;5307;42.548;22.968;2023-06-22T14:24:47;15.50;;;8.65;;
10517;SDS011;5307;42.548;22.968;2023-06-22T14:27:15;13.80;;;9.10;;
10517;SDS011;5307;42.548;22.968;2023-06-22T14:29:43;11.60;;;9.30;;
10517;SDS011;5307;42.548;22.968;2023-06-22T14:32:10;12.57;;;9.23;;
10517;SDS011;5307;42.548;22.968;2023-06-22T14:34:37;12.43;;;9.68;;
10517;SDS011;5307;42.548;22.968;2023-06-22T14:37:05;11.52;;;8.40;;
10517;SDS011;5307;42.548;22.968;2023-06-22T14:39:32;9.27;;;7.30;;
10517;SDS011;5307;42.548;22.968;2023-06-22T14:41:59;10.38;;;7.35;;
10517;SDS011;5307;42.548;22.968;2023-06-22T14:44:26;10.27;;;7.97;;
10517;SDS011;5307;42.548;22.968;2023-06-22T14:46:55;11.10;;;7.50;;
10517;SDS011;5307;42.548;22.968;2023-06-22T14:49:22;9.88;;;7.20;;
10517;SDS011;5307;42.548;22.968;2023-06-22T14:51:49;11.07;;;7.03;;
10517;SDS011;5307;42.548;22.968;2023-06-22T14:54:16;14.32;;;7.32;;
10517;SDS011;5307;42.548;22.968;2023-06-22T14:56:43;11.57;;;7.82;;